Current Weather

Diori Hamani

Diori Hamani, Niger (DRRN)

Report from: Monday, February 6, 2023 6:00 AM WAT
Current time: Monday, February 6, 2023 6:23 AM WAT

Nearby weather
Weather history
Weather forecast

Temperature23.0°C (73.4°F)
Dew point-2.0°C (28.4°F)
Winds 4 kts (2.1 m/s, 4.6 mph) North (10°)
Visibility5 mi. (8 km)
Altimeter29.85 in.Hg (1011 mB)
Relative humidity19 %
Density altitude1,092 ft. (333 m)
Remarks No significant changes expected in the next two hours
Flight conditions Marginal Visual Meteorological Conditions
Raw dataDRRN 060500Z 01004KT 8000 NSC 23/M02 Q1011 NOSIG
An error has occurred. This application may no longer respond until reloaded. Reload 🗙